Time;durP1;ratioP1;P1;durP2;ratioP2;P2;SDS_P1;SDS_P2;PMS_P1;PMS_P2;Temp;Humidity;BMP_temperature;BMP_pressure;BME280_temperature;BME280_humidity;BME280_pressure;Samples;Min_cycle;Max_cycle;Signal;HPM_P1;HPM_P2
2021/06/20 00:00:34;;;;;;;5.32;4.80;;;;;;;;;;5099494;28;20123;-80
2021/06/20 00:03:01;;;;;;;6.15;4.97;;;;;;;;;;5100563;28;20016;-80
2021/06/20 00:05:32;;;;;;;7.63;4.88;;;;;;;;;;5100387;28;20024;-81
2021/06/20 00:07:58;;;;;;;;;;;;;;;;;;5100823;28;20050;-81
2021/06/20 00:10:26;;;;;;;5.60;4.70;;;;;;;;;;5100637;28;19949;-81
2021/06/20 00:12:52;;;;;;;7.07;4.30;;;;;;;;;;5100361;28;20112;-80
2021/06/20 00:15:20;;;;;;;6.28;4.30;;;;;;;;;;5099898;28;20060;-81
2021/06/20 00:17:46;;;;;;;4.57;4.13;;;;;;;;;;5100193;28;20032;-80
2021/06/20 00:20:14;;;;;;;7.15;4.03;;;;;;;;;;5099125;28;20081;-80
2021/06/20 00:22:40;;;;;;;6.80;4.80;;;;;;;;;;5098960;28;20024;-80
2021/06/20 00:25:06;;;;;;;5.93;4.00;;;;;;;;;;5100214;28;20035;-80
2021/06/20 00:27:33;;;;;;;4.95;3.78;;;;;;;;;;5100195;28;20046;-80
2021/06/20 00:29:59;;;;;;;4.47;3.75;;;;;;;;;;5100098;28;20070;-80
2021/06/20 00:32:25;;;;;;;7.05;4.13;;;;;;;;;;5100077;28;20016;-81
2021/06/20 00:34:52;;;;;;;4.43;4.00;;;;;;;;;;5099792;28;20499;-80
2021/06/20 00:37:18;;;;;;;5.47;4.28;;;;;;;;;;5097857;28;20028;-80
2021/06/20 00:39:45;;;;;;;11.05;4.13;;;;;;;;;;5079599;28;20421;-81
2021/06/20 00:42:11;;;;;;;3.97;3.58;;;;;;;;;;5079568;28;20448;-80
2021/06/20 00:44:47;;;;;;;6.20;4.22;;;;;;;;;;5078200;28;20032;-80
2021/06/20 00:47:14;;;;;;;6.28;4.18;;;;;;;;;;5079391;28;20425;-80
2021/06/20 00:49:40;;;;;;;4.57;3.50;;;;;;;;;;5079669;28;20028;-79
2021/06/20 00:52:06;;;;;;;10.70;4.18;;;;;;;;;;5079458;28;20032;-81
2021/06/20 00:54:32;;;;;;;3.63;3.33;;;;;;;;;;5078201;28;20433;-80
2021/06/20 00:56:58;;;;;;;4.82;3.85;;;;;;;;;;5079254;28;20432;-81
2021/06/20 00:59:24;;;;;;;5.22;4.00;;;;;;;;;;5078811;28;20020;-80
2021/06/20 01:01:50;;;;;;;4.55;3.67;;;;;;;;;;5078027;28;20032;-81
2021/06/20 01:04:16;;;;;;;5.82;4.22;;;;;;;;;;5079022;28;20105;-80
2021/06/20 01:06:43;;;;;;;7.45;4.00;;;;;;;;;;5078859;28;20031;-81
2021/06/20 01:09:09;;;;;;;5.38;4.10;;;;;;;;;;5078997;28;20024;-81
2021/06/20 01:11:35;;;;;;;8.77;5.45;;;;;;;;;;5079007;28;20016;-81
2021/06/20 01:14:01;;;;;;;9.35;4.25;;;;;;;;;;5078977;28;20029;-81
2021/06/20 01:16:27;;;;;;;6.28;4.15;;;;;;;;;;5078488;28;20059;-80
2021/06/20 01:18:55;;;;;;;9.35;4.13;;;;;;;;;;5078407;28;20020;-81
2021/06/20 01:21:21;;;;;;;8.07;4.65;;;;;;;;;;5078752;28;20021;-81
2021/06/20 01:23:47;;;;;;;7.13;4.07;;;;;;;;;;5078781;28;20024;-80
2021/06/20 01:26:14;;;;;;;5.90;4.03;;;;;;;;;;5078592;28;20021;-80
2021/06/20 01:28:48;;;;;;;6.07;4.28;;;;;;;;;;5078796;28;20219;-81
2021/06/20 01:31:14;;;;;;;4.70;3.95;;;;;;;;;;5078760;28;20016;-80
2021/06/20 01:33:40;;;;;;;7.05;4.38;;;;;;;;;;5078509;28;20031;-80
2021/06/20 01:36:07;;;;;;;6.35;3.95;;;;;;;;;;5078746;28;20419;-80
2021/06/20 01:38:33;;;;;;;6.93;4.20;;;;;;;;;;5078540;28;20040;-80
2021/06/20 01:40:59;;;;;;;7.10;4.20;;;;;;;;;;5077301;28;20024;-80
2021/06/20 01:43:25;;;;;;;5.45;4.47;;;;;;;;;;5078268;28;20393;-80
2021/06/20 01:45:51;;;;;;;8.23;4.50;;;;;;;;;;5078024;28;20036;-80
2021/06/20 01:48:17;;;;;;;6.50;4.63;;;;;;;;;;5077230;28;20016;-81
2021/06/20 01:50:43;;;;;;;6.40;4.47;;;;;;;;;;5077961;28;20075;-80
2021/06/20 01:53:14;;;;;;;8.45;4.68;;;;;;;;;;5078096;28;20116;-80
2021/06/20 01:55:41;;;;;;;5.00;4.60;;;;;;;;;;5078009;28;20024;-80
2021/06/20 01:58:08;;;;;;;6.38;4.60;;;;;;;;;;5077999;28;20683;-80
2021/06/20 02:00:39;;;;;;;7.43;4.88;;;;;;;;;;5078088;28;20028;-81
2021/06/20 02:03:06;;;;;;;5.78;4.55;;;;;;;;;;5077998;28;20031;-80
2021/06/20 02:05:32;;;;;;;6.22;4.43;;;;;;;;;;5078018;28;20314;-80
2021/06/20 02:07:58;;;;;;;8.98;5.00;;;;;;;;;;5076847;28;20431;-80
2021/06/20 02:10:24;;;;;;;9.13;4.97;;;;;;;;;;5077241;28;20083;-80
2021/06/20 02:12:52;;;;;;;8.30;5.05;;;;;;;;;;5077682;28;20019;-80
2021/06/20 02:15:18;;;;;;;5.75;5.15;;;;;;;;;;5077556;28;20098;-80
2021/06/20 02:17:47;;;;;;;5.00;4.25;;;;;;;;;;5077673;28;20031;-80
2021/06/20 02:20:14;;;;;;;5.85;4.60;;;;;;;;;;5077849;28;20031;-79
2021/06/20 02:22:41;;;;;;;5.25;4.75;;;;;;;;;;5077465;28;20474;-80
2021/06/20 02:25:08;;;;;;;8.95;5.10;;;;;;;;;;5076577;28;20037;-80
2021/06/20 02:27:34;;;;;;;9.10;4.78;;;;;;;;;;5077718;28;20024;-80
2021/06/20 02:30:00;;;;;;;5.70;4.47;;;;;;;;;;5077452;28;20017;-80
2021/06/20 02:32:26;;;;;;;7.18;4.45;;;;;;;;;;5077225;28;20052;-80
2021/06/20 02:34:52;;;;;;;7.05;4.30;;;;;;;;;;5077175;28;20024;-80
2021/06/20 02:37:18;;;;;;;10.13;4.47;;;;;;;;;;5077122;28;20036;-79
2021/06/20 02:39:45;;;;;;;6.32;4.70;;;;;;;;;;5077357;28;20024;-80
2021/06/20 02:42:11;;;;;;;6.47;4.80;;;;;;;;;;5077349;28;20341;-81
2021/06/20 02:44:37;;;;;;;6.70;4.82;;;;;;;;;;5076982;28;20039;-80
2021/06/20 02:47:05;;;;;;;6.35;4.60;;;;;;;;;;5076209;28;20020;-80
2021/06/20 02:49:32;;;;;;;6.90;5.00;;;;;;;;;;5077143;28;20353;-80
2021/06/20 02:51:59;;;;;;;8.52;5.03;;;;;;;;;;5077121;28;20028;-80
2021/06/20 02:54:25;;;;;;;7.53;5.20;;;;;;;;;;5077105;28;20028;-80
2021/06/20 02:56:51;;;;;;;7.68;4.90;;;;;;;;;;5076144;28;20395;-80
2021/06/20 02:59:17;;;;;;;7.65;4.45;;;;;;;;;;5077210;28;20029;-80
2021/06/20 03:01:43;;;;;;;5.68;4.90;;;;;;;;;;5077017;28;20027;-80
2021/06/20 03:04:10;;;;;;;8.65;4.63;;;;;;;;;;5077040;28;20391;-80
2021/06/20 03:06:36;;;;;;;11.05;5.15;;;;;;;;;;5076791;28;20025;-80
2021/06/20 03:09:03;;;;;;;6.90;5.03;;;;;;;;;;5077057;28;20066;-80
2021/06/20 03:11:29;;;;;;;8.27;5.40;;;;;;;;;;5076866;28;20314;-80
2021/06/20 03:13:55;;;;;;;7.15;5.13;;;;;;;;;;5075950;28;20114;-80
2021/06/20 03:16:21;;;;;;;7.82;5.18;;;;;;;;;;5076820;28;20055;-80
2021/06/20 03:18:48;;;;;;;11.25;5.30;;;;;;;;;;5075668;28;20036;-80
2021/06/20 03:21:15;;;;;;;9.57;5.43;;;;;;;;;;5077722;28;20407;-80
2021/06/20 03:23:41;;;;;;;7.13;5.30;;;;;;;;;;5081064;28;20410;-80
2021/06/20 03:26:08;;;;;;;6.88;5.47;;;;;;;;;;5079933;28;20060;-80
2021/06/20 03:28:34;;;;;;;8.63;5.60;;;;;;;;;;5080947;28;20078;-80
2021/06/20 03:31:00;;;;;;;7.07;5.03;;;;;;;;;;5080902;28;20023;-80
2021/06/20 03:33:26;;;;;;;6.85;5.00;;;;;;;;;;5080794;28;20100;-80
2021/06/20 03:35:52;;;;;;;10.40;4.80;;;;;;;;;;5080792;28;20071;-80
2021/06/20 03:38:18;;;;;;;7.13;4.82;;;;;;;;;;5080698;28;20029;-80
2021/06/20 03:40:44;;;;;;;6.28;4.70;;;;;;;;;;5079632;28;20029;-80
2021/06/20 03:43:10;;;;;;;6.93;5.20;;;;;;;;;;5080615;28;20047;-80
2021/06/20 03:45:36;;;;;;;7.78;4.75;;;;;;;;;;5080455;28;20033;-80
2021/06/20 03:48:02;;;;;;;7.35;4.55;;;;;;;;;;5080553;28;20116;-80
2021/06/20 03:50:29;;;;;;;5.22;4.72;;;;;;;;;;5080324;28;20028;-80
2021/06/20 03:52:55;;;;;;;6.22;5.07;;;;;;;;;;5080511;28;20052;-80
2021/06/20 03:55:21;;;;;;;8.02;5.25;;;;;;;;;;5079197;28;20389;-80
2021/06/20 03:57:47;;;;;;;5.60;5.05;;;;;;;;;;5079211;28;20032;-80
2021/06/20 04:00:15;;;;;;;7.18;5.13;;;;;;;;;;5080120;28;20031;-80
2021/06/20 04:02:41;;;;;;;10.20;5.93;;;;;;;;;;5080145;28;20429;-80
2021/06/20 04:05:07;;;;;;;10.32;5.90;;;;;;;;;;5080350;28;20033;-80
2021/06/20 04:07:34;;;;;;;10.10;5.00;;;;;;;;;;5079981;28;20024;-80
2021/06/20 04:10:00;;;;;;;5.43;4.93;;;;;;;;;;5079017;28;20102;-80
2021/06/20 04:12:26;;;;;;;6.20;4.60;;;;;;;;;;5080101;28;20100;-80
2021/06/20 04:14:52;;;;;;;7.00;4.82;;;;;;;;;;5079764;28;20048;-80
2021/06/20 04:17:21;;;;;;;6.38;4.40;;;;;;;;;;5079964;28;20028;-80
2021/06/20 04:19:47;;;;;;;5.60;4.85;;;;;;;;;;5080087;28;20059;-80
2021/06/20 04:22:13;;;;;;;7.57;4.50;;;;;;;;;;5079780;28;20024;-80
2021/06/20 04:24:39;;;;;;;5.85;4.20;;;;;;;;;;5079905;28;20107;-80
2021/06/20 04:27:05;;;;;;;8.35;4.43;;;;;;;;;;5078786;28;20021;-80
2021/06/20 04:29:31;;;;;;;5.88;4.47;;;;;;;;;;5079903;28;20066;-80
2021/06/20 04:31:57;;;;;;;7.47;4.85;;;;;;;;;;5079892;28;20020;-80
2021/06/20 04:34:23;;;;;;;6.30;4.65;;;;;;;;;;5078823;28;20021;-80
2021/06/20 04:36:49;;;;;;;5.72;4.13;;;;;;;;;;5078543;28;20040;-80
2021/06/20 04:39:16;;;;;;;7.13;4.40;;;;;;;;;;5079606;28;20078;-80
2021/06/20 04:41:42;;;;;;;5.07;3.80;;;;;;;;;;5079700;28;20024;-80
2021/06/20 04:44:42;;;;;;;7.25;3.65;;;;;;;;;;5079579;28;20102;-80
2021/06/20 04:46:54;;;;;;;5.03;3.55;;;;;;;;;;5079426;28;20028;-80
2021/06/20 04:49:20;;;;;;;6.20;3.55;;;;;;;;;;5079378;28;20016;-80
2021/06/20 04:51:47;;;;;;;3.88;3.47;;;;;;;;;;5079364;28;20052;-80
2021/06/20 04:54:14;;;;;;;4.55;3.10;;;;;;;;;;5079503;28;20019;-80
2021/06/20 04:56:41;;;;;;;6.03;2.90;;;;;;;;;;5079188;28;20085;-80
2021/06/20 04:59:08;;;;;;;3.70;3.05;;;;;;;;;;5078200;28;20025;-80
2021/06/20 05:01:34;;;;;;;4.45;3.10;;;;;;;;;;5079144;28;20021;-80
2021/06/20 05:04:00;;;;;;;4.88;2.60;;;;;;;;;;5079133;28;20036;-80
2021/06/20 05:06:32;;;;;;;3.25;2.60;;;;;;;;;;5079224;28;20118;-80
2021/06/20 05:08:58;;;;;;;3.67;2.40;;;;;;;;;;5079193;28;20051;-80
2021/06/20 05:11:25;;;;;;;10.82;7.65;;;;;;;;;;5078970;28;20025;-80
2021/06/20 05:13:51;;;;;;;11.82;7.40;;;;;;;;;;5079007;28;20029;-80
2021/06/20 05:16:17;;;;;;;60.08;48.63;;;;;;;;;;5078722;28;20089;-80
2021/06/20 05:18:43;;;;;;;22.40;16.55;;;;;;;;;;5078982;28;20025;-80
2021/06/20 05:21:09;;;;;;;38.90;30.25;;;;;;;;;;5077765;28;20317;-80
2021/06/20 05:23:35;;;;;;;10.07;8.05;;;;;;;;;;5078988;28;20029;-81
2021/06/20 05:26:01;;;;;;;7.03;4.70;;;;;;;;;;5078803;28;20151;-81
2021/06/20 05:28:27;;;;;;;45.00;36.45;;;;;;;;;;5078855;28;20028;-80
2021/06/20 05:30:53;;;;;;;33.50;25.40;;;;;;;;;;5078554;28;20111;-80
2021/06/20 05:33:20;;;;;;;19.48;14.52;;;;;;;;;;5078480;28;20021;-81
2021/06/20 05:35:46;;;;;;;19.45;12.15;;;;;;;;;;5078582;28;20024;-81
2021/06/20 05:38:16;;;;;;;10.02;7.43;;;;;;;;;;5077432;28;20035;-80
2021/06/20 05:40:43;;;;;;;29.52;23.33;;;;;;;;;;5078384;28;20031;-81
2021/06/20 05:43:09;;;;;;;21.13;15.25;;;;;;;;;;5078485;28;20315;-80
2021/06/20 05:45:37;;;;;;;14.95;11.70;;;;;;;;;;5076995;28;20033;-80
2021/06/20 05:48:03;;;;;;;26.70;21.80;;;;;;;;;;5078148;28;20398;-80
2021/06/20 05:50:29;;;;;;;22.13;16.42;;;;;;;;;;5077177;28;20028;-80
2021/06/20 05:52:56;;;;;;;8.93;5.78;;;;;;;;;;5078137;28;20048;-80
2021/06/20 05:55:22;;;;;;;6.43;4.53;;;;;;;;;;5078058;28;20074;-80
2021/06/20 05:57:48;;;;;;;15.73;11.90;;;;;;;;;;5077126;28;20505;-80
2021/06/20 06:00:14;;;;;;;10.82;8.35;;;;;;;;;;5077901;28;20342;-80
2021/06/20 06:02:41;;;;;;;7.22;5.65;;;;;;;;;;5076897;28;20414;-80
2021/06/20 06:05:07;;;;;;;4.55;3.10;;;;;;;;;;5078042;28;20035;-80
2021/06/20 06:07:33;;;;;;;5.82;5.22;;;;;;;;;;5077772;28;20056;-80
2021/06/20 06:10:00;;;;;;;8.88;7.03;;;;;;;;;;5077986;28;20069;-80
2021/06/20 06:12:26;;;;;;;9.18;6.72;;;;;;;;;;5077794;28;20020;-81
2021/06/20 06:14:53;;;;;;;10.98;8.60;;;;;;;;;;5076546;28;20072;-81
2021/06/20 06:17:22;;;;;;;14.63;12.35;;;;;;;;;;5077655;28;20016;-80
2021/06/20 06:19:49;;;;;;;29.25;24.35;;;;;;;;;;5077983;28;20020;-80
2021/06/20 06:22:19;;;;;;;20.85;15.23;;;;;;;;;;5077696;28;20027;-80
2021/06/20 06:24:45;;;;;;;5.07;4.05;;;;;;;;;;5077591;28;20023;-80
2021/06/20 06:27:15;;;;;;;10.65;4.90;;;;;;;;;;5077534;28;20100;-80
2021/06/20 06:29:42;;;;;;;9.48;5.90;;;;;;;;;;5077236;28;20029;-80
2021/06/20 06:32:09;;;;;;;9.30;4.22;;;;;;;;;;5077703;28;20028;-80
2021/06/20 06:34:35;;;;;;;8.20;4.95;;;;;;;;;;5077458;28;20041;-80
2021/06/20 06:37:02;;;;;;;11.88;4.63;;;;;;;;;;5077431;28;20033;-80
2021/06/20 06:39:29;;;;;;;10.15;7.70;;;;;;;;;;5077315;28;20024;-80
2021/06/20 06:41:55;;;;;;;4.57;3.30;;;;;;;;;;5077389;28;20029;-81
2021/06/20 06:44:22;;;;;;;4.57;3.05;;;;;;;;;;5077089;28;20097;-81
2021/06/20 06:46:48;;;;;;;12.88;8.00;;;;;;;;;;5076996;28;20306;-81
2021/06/20 06:49:14;;;;;;;12.70;8.52;;;;;;;;;;5076864;28;20017;-81
2021/06/20 06:51:40;;;;;;;9.10;6.90;;;;;;;;;;5079957;28;20024;-80
2021/06/20 06:54:06;;;;;;;4.20;3.80;;;;;;;;;;5077241;28;20135;-80
2021/06/20 06:56:32;;;;;;;6.93;4.07;;;;;;;;;;5076593;28;20032;-81
2021/06/20 06:58:59;;;;;;;7.97;5.65;;;;;;;;;;5076892;28;20024;-81
2021/06/20 07:01:25;;;;;;;6.55;4.68;;;;;;;;;;5075978;28;20158;-80
2021/06/20 07:03:54;;;;;;;8.85;5.28;;;;;;;;;;5088787;28;20097;-81
2021/06/20 07:06:20;;;;;;;8.65;4.63;;;;;;;;;;5096688;28;20024;-81
2021/06/20 07:08:47;;;;;;;6.60;3.97;;;;;;;;;;5096908;28;20020;-81
2021/06/20 07:11:13;;;;;;;13.38;7.82;;;;;;;;;;5097068;28;20020;-80
2021/06/20 07:13:39;;;;;;;14.60;5.78;;;;;;;;;;5096166;28;20030;-80
2021/06/20 07:16:06;;;;;;;5.22;3.38;;;;;;;;;;5095232;28;20040;-80
2021/06/20 07:18:32;;;;;;;18.15;8.05;;;;;;;;;;5095228;28;20076;-80
2021/06/20 07:20:59;;;;;;;5.78;3.10;;;;;;;;;;5097089;28;20078;-81
2021/06/20 07:23:25;;;;;;;6.90;4.63;;;;;;;;;;5096770;28;20303;-80
2021/06/20 07:25:51;;;;;;;4.40;3.50;;;;;;;;;;5095911;28;20039;-80
2021/06/20 07:28:17;;;;;;;5.80;4.60;;;;;;;;;;5096892;28;20032;-80
2021/06/20 07:30:49;;;;;;;5.45;3.20;;;;;;;;;;5096711;28;20073;-80
2021/06/20 07:33:15;;;;;;;;;;;;;;;;;;5096610;28;20020;-80
2021/06/20 07:35:41;;;;;;;4.30;2.97;;;;;;;;;;5095821;28;19999;-79
2021/06/20 07:38:07;;;;;;;7.43;4.63;;;;;;;;;;5096782;28;20024;-79
2021/06/20 07:40:33;;;;;;;3.55;2.10;;;;;;;;;;5097283;28;20028;-81
2021/06/20 07:42:59;;;;;;;2.50;2.30;;;;;;;;;;5096373;28;20030;-81
2021/06/20 07:45:25;;;;;;;2.92;2.63;;;;;;;;;;5095926;28;20341;-80
2021/06/20 07:47:55;;;;;;;4.68;3.08;;;;;;;;;;5088800;28;20309;-80
2021/06/20 07:50:21;;;;;;;4.25;2.92;;;;;;;;;;5086388;28;20032;-81
2021/06/20 07:52:47;;;;;;;4.32;3.92;;;;;;;;;;5095089;28;20414;-81
2021/06/20 07:55:13;;;;;;;6.18;5.05;;;;;;;;;;5096355;28;20024;-81
2021/06/20 07:57:39;;;;;;;4.97;3.15;;;;;;;;;;5095589;28;20457;-80
2021/06/20 08:00:08;;;;;;;3.70;2.83;;;;;;;;;;5095820;28;20035;-81
2021/06/20 08:02:35;;;;;;;5.65;2.78;;;;;;;;;;5082685;28;20028;-82
2021/06/20 08:05:01;;;;;;;10.40;8.45;;;;;;;;;;5076312;28;20055;-80
2021/06/20 08:07:27;;;;;;;6.80;4.03;;;;;;;;;;5076347;28;20071;-81
2021/06/20 08:09:56;;;;;;;6.55;2.97;;;;;;;;;;5079918;28;20418;-81
2021/06/20 08:12:23;;;;;;;6.18;4.90;;;;;;;;;;5079893;28;20031;-81
2021/06/20 08:14:49;;;;;;;2.90;2.58;;;;;;;;;;5079802;28;20064;-81
2021/06/20 08:17:15;;;;;;;4.07;3.20;;;;;;;;;;5079817;28;20425;-80
2021/06/20 08:19:42;;;;;;;6.45;4.85;;;;;;;;;;5079972;28;20024;-81
2021/06/20 08:22:09;;;;;;;3.95;2.67;;;;;;;;;;5079849;28;20334;-81
2021/06/20 08:24:35;;;;;;;6.15;3.00;;;;;;;;;;5079072;28;20032;-81
2021/06/20 08:27:02;;;;;;;4.13;2.33;;;;;;;;;;5079896;28;20116;-80
2021/06/20 08:29:28;;;;;;;5.97;2.50;;;;;;;;;;5079965;28;20048;-81
2021/06/20 08:31:54;;;;;;;5.07;2.58;;;;;;;;;;5080035;28;20025;-81
2021/06/20 08:34:20;;;;;;;4.15;2.67;;;;;;;;;;5079960;28;20029;-81
2021/06/20 08:36:47;;;;;;;9.68;3.35;;;;;;;;;;5078874;28;20045;-81
2021/06/20 08:39:13;;;;;;;4.07;2.65;;;;;;;;;;5078573;28;20040;-81
2021/06/20 08:41:41;;;;;;;4.85;2.90;;;;;;;;;;5079458;28;20029;-81
2021/06/20 08:44:26;;;;;;;3.88;3.10;;;;;;;;;;5078596;28;20033;-81
2021/06/20 08:46:52;;;;;;;2.90;2.60;;;;;;;;;;5079442;28;20089;-81
2021/06/20 08:49:18;;;;;;;3.50;2.50;;;;;;;;;;5078463;28;20020;-81
2021/06/20 08:51:46;;;;;;;4.57;3.55;;;;;;;;;;5079157;28;20021;-81
2021/06/20 08:54:12;;;;;;;2.40;2.20;;;;;;;;;;5079391;28;20016;-80
2021/06/20 08:56:38;;;;;;;2.92;2.22;;;;;;;;;;5079248;28;20109;-81
2021/06/20 08:59:05;;;;;;;3.13;2.33;;;;;;;;;;5079472;28;20066;-81
2021/06/20 09:01:32;;;;;;;3.90;3.53;;;;;;;;;;5079041;28;20303;-81
2021/06/20 09:03:59;;;;;;;5.20;2.95;;;;;;;;;;5078170;28;20051;-81
2021/06/20 09:06:25;;;;;;;3.72;2.78;;;;;;;;;;5079130;28;20022;-81
2021/06/20 09:08:51;;;;;;;5.68;3.03;;;;;;;;;;5079092;28;20060;-81
2021/06/20 09:11:23;;;;;;;3.25;2.30;;;;;;;;;;5079135;28;20046;-81
2021/06/20 09:13:50;;;;;;;5.05;2.20;;;;;;;;;;5078837;28;20104;-81
2021/06/20 09:16:19;;;;;;;1.90;1.80;;;;;;;;;;5077736;28;20036;-81
2021/06/20 09:18:52;;;;;;;4.78;2.33;;;;;;;;;;5078790;28;20099;-81
2021/06/20 09:21:23;;;;;;;3.72;2.58;;;;;;;;;;5078937;28;20055;-80
2021/06/20 09:23:49;;;;;;;3.72;2.63;;;;;;;;;;5078071;28;20062;-81
2021/06/20 09:26:16;;;;;;;7.20;4.50;;;;;;;;;;5078667;28;20032;-81
2021/06/20 09:28:42;;;;;;;4.15;3.70;;;;;;;;;;5078728;28;20032;-82
2021/06/20 09:31:09;;;;;;;5.85;3.05;;;;;;;;;;5078740;28;20024;-81
2021/06/20 09:33:36;;;;;;;4.75;2.55;;;;;;;;;;5078806;28;20031;-80
2021/06/20 09:36:02;;;;;;;6.25;4.68;;;;;;;;;;5078670;28;20029;-81
2021/06/20 09:38:33;;;;;;;8.63;7.72;;;;;;;;;;5078496;28;20024;-81
2021/06/20 09:41:02;;;;;;;32.72;28.10;;;;;;;;;;5078525;28;20346;-80
2021/06/20 09:43:28;;;;;;;3.10;1.90;;;;;;;;;;5078488;28;20035;-80
2021/06/20 09:45:54;;;;;;;9.75;8.30;;;;;;;;;;5077277;28;20430;-81
2021/06/20 09:48:24;;;;;;;9.60;5.20;;;;;;;;;;5078312;28;20029;-81
2021/06/20 09:50:50;;;;;;;15.48;12.32;;;;;;;;;;5078399;28;20024;-81
2021/06/20 09:53:19;;;;;;;5.82;5.25;;;;;;;;;;5078051;28;20111;-81
2021/06/20 09:55:45;;;;;;;3.05;2.75;;;;;;;;;;5078102;28;20032;-81
2021/06/20 09:58:11;;;;;;;3.58;2.83;;;;;;;;;;5078283;28;20031;-80
2021/06/20 10:00:42;;;;;;;8.80;6.90;;;;;;;;;;5078135;28;20135;-80
2021/06/20 10:03:08;;;;;;;3.53;2.65;;;;;;;;;;5078024;28;20029;-81
2021/06/20 10:05:34;;;;;;;26.73;22.85;;;;;;;;;;5077851;28;20414;-81
2021/06/20 10:08:01;;;;;;;8.75;7.93;;;;;;;;;;5077767;28;20287;-81
2021/06/20 10:10:28;;;;;;;5.93;3.33;;;;;;;;;;5077918;28;20020;-80
2021/06/20 10:12:54;;;;;;;3.10;2.80;;;;;;;;;;5076931;28;20117;-80
2021/06/20 10:15:21;;;;;;;4.35;3.30;;;;;;;;;;5077613;28;20056;-81
2021/06/20 10:17:54;;;;;;;6.82;4.30;;;;;;;;;;5077836;28;20031;-80
2021/06/20 10:20:20;;;;;;;7.03;5.00;;;;;;;;;;5077994;28;20031;-80
2021/06/20 10:22:48;;;;;;;8.90;6.53;;;;;;;;;;5077655;28;20027;-80
2021/06/20 10:25:25;;;;;;;4.30;2.95;;;;;;;;;;5077546;28;20035;-81
2021/06/20 10:28:01;;;;;;;7.15;3.03;;;;;;;;;;5077715;28;20024;-81
2021/06/20 10:30:32;;;;;;;1.70;1.60;;;;;;;;;;5076344;28;20298;-80
2021/06/20 10:33:03;;;;;;;2.35;1.88;;;;;;;;;;5076615;28;20029;-81
2021/06/20 10:35:29;;;;;;;2.90;1.52;;;;;;;;;;5077609;28;20491;-81
2021/06/20 10:37:55;;;;;;;1.92;1.60;;;;;;;;;;5077527;28;20037;-81
2021/06/20 10:40:44;;;;;;;1.83;1.48;;;;;;;;;;5076380;28;20032;-80
2021/06/20 10:43:15;;;;;;;2.58;1.83;;;;;;;;;;5077410;28;20086;-80
2021/06/20 10:45:41;;;;;;;1.85;1.60;;;;;;;;;;5077090;28;20448;-80
2021/06/20 10:48:21;;;;;;;2.85;1.80;;;;;;;;;;5077404;28;20410;-80
2021/06/20 10:50:48;;;;;;;5.60;3.10;;;;;;;;;;5076492;28;20033;-80
2021/06/20 10:53:14;;;;;;;7.90;4.10;;;;;;;;;;5077068;28;20035;-80
2021/06/20 10:55:42;;;;;;;3.22;1.85;;;;;;;;;;5077103;28;20368;-81
2021/06/20 10:58:21;;;;;;;5.55;2.95;;;;;;;;;;5077270;28;20032;-80
2021/06/20 11:00:48;;;;;;;7.72;5.55;;;;;;;;;;5077207;28;20029;-79
2021/06/20 11:03:22;;;;;;;6.03;2.63;;;;;;;;;;5076359;28;20032;-80
2021/06/20 11:05:52;;;;;;;3.97;2.30;;;;;;;;;;5076894;28;20024;-79
2021/06/20 11:08:34;;;;;;;8.10;2.08;;;;;;;;;;5077044;28;20032;-80
2021/06/20 11:11:21;;;;;;;3.70;2.00;;;;;;;;;;5075826;28;20074;-80
2021/06/20 11:13:48;;;;;;;3.05;2.10;;;;;;;;;;5077056;28;20025;-79
2021/06/20 11:16:23;;;;;;;2.55;2.20;;;;;;;;;;5076918;28;20036;-79
2021/06/20 11:18:49;;;;;;;2.45;2.00;;;;;;;;;;5076942;28;20444;-79
2021/06/20 11:21:15;;;;;;;1.80;1.70;;;;;;;;;;5076945;28;20025;-79
2021/06/20 11:23:42;;;;;;;4.78;2.00;;;;;;;;;;5076909;28;20060;-79
2021/06/20 11:26:08;;;;;;;2.35;1.65;;;;;;;;;;5076838;28;20028;-78
2021/06/20 11:28:34;;;;;;;3.22;1.67;;;;;;;;;;5076983;28;20042;-78
2021/06/20 11:31:04;;;;;;;1.88;1.75;;;;;;;;;;5076907;28;20023;-78
2021/06/20 11:33:30;;;;;;;3.45;1.80;;;;;;;;;;5076809;28;20317;-79
2021/06/20 11:35:57;;;;;;;3.70;2.10;;;;;;;;;;5076894;28;20033;-78
2021/06/20 11:38:33;;;;;;;5.68;1.83;;;;;;;;;;5076703;28;20035;-79
2021/06/20 11:41:09;;;;;;;2.40;1.80;;;;;;;;;;5076778;28;20025;-79
2021/06/20 11:43:39;;;;;;;4.40;1.70;;;;;;;;;;5080122;28;20429;-78
2021/06/20 11:46:16;;;;;;;3.08;2.22;;;;;;;;;;5080485;28;20071;-80
2021/06/20 11:48:52;;;;;;;2.72;2.10;;;;;;;;;;5080748;28;20025;-79
2021/06/20 11:51:31;;;;;;;6.63;2.40;;;;;;;;;;5080775;28;20024;-78
2021/06/20 11:54:09;;;;;;;2.25;1.90;;;;;;;;;;5080403;28;20410;-79
2021/06/20 11:56:36;;;;;;;2.53;1.92;;;;;;;;;;5080575;28;20028;-79
2021/06/20 11:59:02;;;;;;;42.30;26.77;;;;;;;;;;5080430;28;20048;-80
2021/06/20 12:01:48;;;;;;;7.60;5.00;;;;;;;;;;5079933;28;20356;-80
2021/06/20 12:04:24;;;;;;;14.27;8.10;;;;;;;;;;5080338;28;20031;-80
2021/06/20 12:06:50;;;;;;;58.83;32.53;;;;;;;;;;5080392;28;20028;-80
2021/06/20 12:09:17;;;;;;;7.90;5.18;;;;;;;;;;5080121;28;20421;-80
2021/06/20 12:11:43;;;;;;;64.72;35.33;;;;;;;;;;5080080;28;20020;-80
2021/06/20 12:14:21;;;;;;;3.42;2.80;;;;;;;;;;5080223;28;20025;-80
2021/06/20 12:16:47;;;;;;;6.45;3.08;;;;;;;;;;5080166;28;20032;-80
2021/06/20 12:19:14;;;;;;;3.47;3.00;;;;;;;;;;5079325;28;20174;-80
2021/06/20 12:21:41;;;;;;;6.32;3.90;;;;;;;;;;5078909;28;20032;-80
2021/06/20 12:24:11;;;;;;;7.22;4.30;;;;;;;;;;5079872;28;20307;-80
2021/06/20 12:26:37;;;;;;;6.50;4.20;;;;;;;;;;5079682;28;20070;-80
2021/06/20 12:29:05;;;;;;;3.38;2.50;;;;;;;;;;5080130;28;20096;-79
2021/06/20 12:31:31;;;;;;;6.05;3.20;;;;;;;;;;5085018;28;20021;-79
2021/06/20 12:34:04;;;;;;;7.63;4.20;;;;;;;;;;5082040;28;20029;-80
2021/06/20 12:36:30;;;;;;;3.60;2.92;;;;;;;;;;5079705;28;20028;-80
2021/06/20 12:39:01;;;;;;;6.38;2.58;;;;;;;;;;5079647;28;20074;-80
2021/06/20 12:41:29;;;;;;;14.70;3.10;;;;;;;;;;5078618;28;20031;-80
2021/06/20 12:43:59;;;;;;;6.93;3.10;;;;;;;;;;5078415;28;20436;-80
2021/06/20 12:46:30;;;;;;;5.88;2.47;;;;;;;;;;5079314;28;20077;-80
2021/06/20 12:48:59;;;;;;;3.90;2.47;;;;;;;;;;5079443;28;20492;-80
2021/06/20 12:51:33;;;;;;;3.55;2.45;;;;;;;;;;5079371;28;20035;-80
2021/06/20 12:54:07;;;;;;;3.10;2.40;;;;;;;;;;5078797;28;20040;-80
2021/06/20 12:56:33;;;;;;;4.38;2.35;;;;;;;;;;5079588;28;20047;-80
2021/06/20 12:59:01;;;;;;;2.40;2.10;;;;;;;;;;5079345;28;20029;-80
2021/06/20 13:01:27;;;;;;;3.03;2.30;;;;;;;;;;5079492;28;20112;-80
2021/06/20 13:03:53;;;;;;;6.70;2.00;;;;;;;;;;5079193;28;20021;-80
2021/06/20 13:06:21;;;;;;;2.72;2.13;;;;;;;;;;5079042;28;20448;-79
2021/06/20 13:08:47;;;;;;;4.13;3.40;;;;;;;;;;5079052;28;20096;-80
2021/06/20 13:11:14;;;;;;;4.57;2.58;;;;;;;;;;5079221;28;20051;-80
2021/06/20 13:13:40;;;;;;;2.83;2.45;;;;;;;;;;5078355;28;20060;-80
2021/06/20 13:16:06;;;;;;;3.33;2.53;;;;;;;;;;5078772;28;20049;-80
2021/06/20 13:18:32;;;;;;;2.88;2.20;;;;;;;;;;5077884;28;20032;-80
2021/06/20 13:20:58;;;;;;;3.78;3.05;;;;;;;;;;5078978;28;20025;-80
2021/06/20 13:23:24;;;;;;;5.15;2.90;;;;;;;;;;5078774;28;20052;-80
2021/06/20 13:25:51;;;;;;;2.45;1.98;;;;;;;;;;5078710;28;20036;-80
2021/06/20 13:28:17;;;;;;;8.20;4.85;;;;;;;;;;5078966;28;20016;-80
2021/06/20 13:30:43;;;;;;;4.13;2.17;;;;;;;;;;5078673;28;20136;-80
2021/06/20 13:33:10;;;;;;;6.70;2.83;;;;;;;;;;5078620;28;20028;-80
2021/06/20 13:35:36;;;;;;;4.60;3.13;;;;;;;;;;5077868;28;20303;-80
2021/06/20 13:38:02;;;;;;;4.53;3.42;;;;;;;;;;5077711;28;20079;-80
2021/06/20 13:40:30;;;;;;;5.70;2.15;;;;;;;;;;5078508;28;20430;-80
2021/06/20 13:42:56;;;;;;;4.22;2.60;;;;;;;;;;5077741;28;20475;-80
2021/06/20 13:45:24;;;;;;;2.80;2.45;;;;;;;;;;5078512;28;20039;-80
2021/06/20 13:47:51;;;;;;;4.32;2.20;;;;;;;;;;5078245;28;20024;-80
2021/06/20 13:50:17;;;;;;;4.90;2.80;;;;;;;;;;5078361;28;20027;-80
2021/06/20 13:52:43;;;;;;;5.15;2.83;;;;;;;;;;5078009;28;20406;-80
2021/06/20 13:55:10;;;;;;;2.88;2.67;;;;;;;;;;5078428;28;20032;-80
2021/06/20 13:57:37;;;;;;;4.13;2.13;;;;;;;;;;5078016;28;20087;-80
2021/06/20 14:00:14;;;;;;;2.50;2.20;;;;;;;;;;5078143;28;20394;-80
2021/06/20 14:02:40;;;;;;;2.65;2.45;;;;;;;;;;5078180;28;20137;-80
2021/06/20 14:05:07;;;;;;;3.17;2.35;;;;;;;;;;5077666;28;20437;-80
2021/06/20 14:07:35;;;;;;;3.97;2.30;;;;;;;;;;5077299;28;20418;-80
2021/06/20 14:10:01;;;;;;;3.25;2.70;;;;;;;;;;5077925;28;20017;-80
2021/06/20 14:12:27;;;;;;;3.20;2.10;;;;;;;;;;5078066;28;20283;-80
2021/06/20 14:14:53;;;;;;;3.10;2.65;;;;;;;;;;5077732;28;20044;-80
2021/06/20 14:17:20;;;;;;;4.68;2.78;;;;;;;;;;5077741;28;20456;-80
2021/06/20 14:19:46;;;;;;;6.15;3.83;;;;;;;;;;5077084;28;20110;-81
2021/06/20 14:22:12;;;;;;;5.82;2.97;;;;;;;;;;5077589;28;20031;-80
2021/06/20 14:24:38;;;;;;;4.68;2.40;;;;;;;;;;5077560;28;20107;-80
2021/06/20 14:27:04;;;;;;;6.10;3.50;;;;;;;;;;5077563;28;20029;-80
2021/06/20 14:29:30;;;;;;;4.15;3.20;;;;;;;;;;5077528;28;20426;-80
2021/06/20 14:31:56;;;;;;;7.50;4.53;;;;;;;;;;5077326;28;20438;-80
2021/06/20 14:34:22;;;;;;;7.47;6.20;;;;;;;;;;5077561;28;20025;-80
2021/06/20 14:36:48;;;;;;;10.27;5.30;;;;;;;;;;5077398;28;20032;-80
2021/06/20 14:39:15;;;;;;;18.08;12.27;;;;;;;;;;5077462;28;20028;-80
2021/06/20 14:41:41;;;;;;;13.30;6.38;;;;;;;;;;5077319;28;20025;-81